Latest Coastal Weather Observations for Cape Moreton

IDQ60701

Issued at 7:51 pm EST Friday 20 January 2017 (issued every 10 minutes, with the page automatically refreshed every 10 minutes)

About coastal observations | Map of coastal stations | Coastal observations for QLD | Marine services | Other Formats
Station Details ID: 040043 Name: CAPE MORETON LIGHTHOUSE Lat: -27.03 Lon: 153.47 Height: 99.9 m
Data from the previous 72 hours. | See also: Recent months at Cape Moreton
Date/Time
EST
Temp
°C
Wind Pressure Rain since
9am
mm
Weather Cloud Vis
km
Sea
Height
m
Swell
Dir  Spd
kts
Gust
kts
hPa Trend Height
m
Period
s
Dir
20/07:30pm 26.7 N 22 28 1003.4 - 0.0 - - - - - - -
20/07:00pm 26.7 N 18 24 1003.4 - 0.0 - - - - - - -
20/06:30pm 26.6 N 18 24 1003.2 - 0.0 - - - - - - -
20/06:00pm 26.7 N 19 25 1003.4 - 0.0 - - - - - - -
20/05:30pm 26.8 N 18 25 1003.3 - 0.0 - - - - - - -
20/05:00pm 27.2 N 16 22 1003.2 - 0.0 - - - - - - -
20/04:30pm 27.3 NNE 15 21 1003.1 - 0.0 - - - - - - -
20/04:00pm 27.6 NNE 14 19 1003.2 - 0.0 - - - - - - -
20/03:30pm 27.7 NNE 16 20 1003.6 - 0.0 - - - - - - -
20/03:00pm 28.3 NNE 15 20 1004.1 - 0.0 - - - - - - -
20/02:30pm 28.1 NNE 14 17 1004.5 - 0.0 - - - - - - -
20/02:00pm 28.6 NNE 13 17 1005.1 - 0.0 - - - - - - -
20/01:30pm 28.5 NNE 9 12 1006.0 - 0.0 - - - - - - -
20/01:00pm 29.6 NNE 7 10 1006.6 - 0.0 - - - - - - -
20/12:30pm 28.4 NNE 7 10 1007.1 - 0.0 - - - - - - -
20/12:00pm 27.8 NNE 6 9 1007.4 - 0.0 - - - - - - -
20/11:30am 26.9 NW 6 7 1007.9 - 0.0 - - - - - - -
20/11:00am 26.3 NW 7 9 1008.1 - 0.0 - - - - - - -
20/10:30am 26.0 NNW 7 9 1008.4 - 0.0 - - - - - - -
20/10:00am 25.8 W 7 11 1009.1 - 0.0 - - - - - - -
20/09:30am 24.7 WNW 10 13 1009.4 - 0.0 - - - - - - -
20/09:00am 23.9 W 8 12 1009.3 - 6.4 Recent precip. - - - - - -
20/08:30am 24.0 WNW 4 6 1009.2 - 6.4 - - - - - - -
20/08:00am 24.2 WSW 5 5 1009.6 - 6.2 - - - - - - -
20/07:30am 23.8 SW 3 4 1009.5 - 6.0 - - - - - - -
20/07:00am 23.7 WSW 6 8 1009.6 - 4.4 - - - - - - -
20/06:30am 23.8 SW 4 6 1009.3 - 3.8 - - - - - - -
20/06:00am 23.8 W 3 6 1009.2 - 3.6 Rain - - - - - -
20/05:30am 24.0 SW 4 6 1008.8 - 1.6 - - - - - - -
20/05:00am 24.1 SE 7 13 1008.4 - 0.8 - - - - - - -
20/04:30am 24.8 SE 9 11 1008.1 - 0.0 - - - - - - -
20/04:00am 25.0 ESE 10 11 1008.0 - 0.0 - - - - - - -
20/03:30am 24.8 ESE 11 13 1008.0 - 0.0 - - - - - - -
20/03:00am 24.9 ESE 13 15 1007.8 - 0.0 - - - - - - -
20/02:30am 24.9 ESE 13 16 1008.2 - 0.0 - - - - - - -
20/02:00am 24.9 ESE 13 15 1008.6 - 0.0 - - - - - - -
20/01:30am 24.9 ESE 13 15 1008.9 - 0.0 - - - - - - -
20/01:00am 24.9 ESE 14 16 1008.9 - 0.0 - - - - - - -
20/12:30am 24.9 SE 15 17 1009.1 - 0.0 - - - - - - -
20/12:00am 24.9 ESE 18 21 1009.2 - 0.0 - - - - - - -
 
Date/Time
EST
Temp
°C
Wind Pressure Rain since
9am
mm
Weather Cloud Vis
km
Sea
Height
m
Swell
Dir  Spd
kts
Gust
kts
hPa Trend Height
m
Period
s
Dir
19/11:30pm 24.8 ESE 20 23 1009.4 - 0.0 - - - - - - -
19/11:00pm 25.0 SE 21 25 1009.7 - 0.0 - - - - - - -
19/10:30pm 25.0 SE 19 23 1010.2 - 0.0 - - - - - - -
19/10:00pm 25.0 SE 20 24 1010.4 - 0.0 - - - - - - -
19/09:30pm 24.9 SE 19 23 1010.7 - 0.0 - - - - - - -
19/09:00pm 24.8 SE 21 25 1010.7 - 0.0 - - - - - - -
19/08:30pm 24.9 SE 22 25 1010.3 - 0.0 - - - - - - -
19/08:00pm 24.8 ESE 22 25 1010.0 - 0.0 - - - - - - -
19/07:30pm 24.9 SE 23 28 1009.6 - 0.0 - - - - - - -
19/07:00pm 25.0 ESE 22 27 1009.5 - 0.0 - - - - - - -
19/06:30pm 25.1 SE 25 29 1009.1 - 0.0 - - - - - - -
19/06:00pm 25.3 SE 25 30 1008.9 - 0.0 - - - - - - -
19/05:30pm 25.5 SE 25 28 1008.7 - 0.0 - - - - - - -
19/05:00pm 25.8 SE 24 29 1008.5 - 0.0 - - - - - - -
19/04:30pm 25.9 SE 24 28 1008.3 - 0.0 - - - - - - -
19/04:00pm 26.2 SE 23 28 1008.4 - 0.0 - - - - - - -
19/03:30pm 26.5 SE 22 26 1008.7 - 0.0 - - - - - - -
19/03:00pm 26.7 SE 25 29 1008.8 - 0.0 - - - - - - -
19/02:30pm 27.0 SE 25 29 1009.1 - 0.0 - - - - - - -
19/02:00pm 27.2 SE 23 27 1009.6 - 0.0 - - - - - - -
19/01:30pm 27.2 SE 23 28 1009.9 - 0.0 - - - - - - -
19/01:00pm 28.0 SE 23 28 1009.8 - 0.0 - - - - - - -
19/12:30pm 28.1 SE 23 27 1010.1 - 0.0 - - - - - - -
19/12:00pm 28.5 SE 22 26 1010.4 - 0.0 - - - - - - -
19/11:30am 28.5 SSE 23 29 1010.6 - 0.0 - - - - - - -
19/11:00am 28.1 SSE 25 30 1010.4 - 0.0 - - - - - - -
19/10:30am 27.8 SSE 25 30 1010.7 - 0.0 - - - - - - -
19/10:00am 28.2 SSE 24 28 1010.7 - 0.0 - - - - - - -
19/09:30am 27.8 SSE 26 31 1010.7 - 0.0 - - - - - - -
19/09:00am 25.8 SSE 25 31 1010.4 - 0.0 - - - - - - -
19/08:30am 26.0 SSE 27 30 1010.4 - 0.0 - - - - - - -
19/08:00am 25.9 SSE 29 34 1010.4 - 0.0 - - - - - - -
19/07:30am 25.9 SSE 30 36 1009.8 - 0.0 - - - - - - -
19/07:00am 26.0 SE 27 31 1009.7 - 0.0 - - - - - - -
19/06:30am 25.7 SE 19 22 1010.0 - 0.0 - - - - - - -
19/06:00am 25.8 SE 12 14 1010.1 - 0.0 - - - - - - -
19/05:30am 25.6 SE 8 10 1009.7 - 0.0 - - - - - - -
19/05:00am 25.6 SSE 7 10 1009.3 - 0.0 - - - - - - -
19/04:30am 25.0 SSW 8 11 1008.9 - 0.0 - - - - - - -
19/04:00am 25.0 NW 14 19 1007.6 - 0.0 - - - - - - -
19/03:30am 25.0 NW 18 24 1006.7 - 0.0 - - - - - - -
19/03:00am 25.0 NW 20 27 1006.2 - 0.0 - - - - - - -
19/02:30am 25.0 NNW 18 25 1006.6 - 0.0 - - - - - - -
19/02:00am 25.1 NW 18 24 1006.8 - 0.0 - - - - - - -
19/01:30am 25.2 NW 20 26 1006.8 - 0.0 - - - - - - -
19/01:00am 25.3 NNW 19 29 1007.3 - 0.0 - - - - - - -
19/12:53am 25.3 NNW 19 29 1007.4 - 0.0 - - - - - - -
19/12:30am 25.5 NNW 18 26 1007.9 - 0.0 - - - - - - -
19/12:00am 25.7 NNW 19 25 1008.2 - 0.0 - - - - - - -
 
Date/Time
EST
Temp
°C
Wind Pressure Rain since
9am
mm
Weather Cloud Vis
km
Sea
Height
m
Swell
Dir  Spd
kts
Gust
kts
hPa Trend Height
m
Period
s
Dir
18/11:30pm 25.9 NNW 17 23 1008.5 - 0.0 - - - - - - -
18/11:00pm 25.9 NNW 17 24 1008.7 - 0.0 - - - - - - -
18/10:30pm 25.8 NNW 17 23 1008.7 - 0.0 - - - - - - -
18/10:00pm 25.7 NNW 18 24 1008.9 - 0.0 - - - - - - -
18/09:30pm 25.8 NNW 18 24 1009.2 - 0.0 - - - - - - -
18/09:00pm 25.9 NNW 19 24 1009.1 - 0.0 - - - - - - -
18/08:30pm 25.9 NNW 19 24 1009.1 - 0.0 - - - - - - -
18/08:00pm 25.9 NNW 19 24 1009.0 - 0.0 - - - - - - -
18/07:30pm 25.9 N 20 25 1008.7 - 0.0 - - - - - - -
18/07:00pm 26.0 N 21 26 1008.5 - 0.0 - - - - - - -
18/06:30pm 26.1 N 19 23 1008.4 - 0.0 - - - - - - -
18/06:00pm 26.3 N 19 24 1008.3 - 0.0 - - - - - - -
18/05:30pm 26.7 N 18 23 1008.4 - 0.0 - - - - - - -
18/05:00pm 27.1 N 15 20 1008.6 - 0.0 - - - - - - -
18/04:30pm 27.5 N 15 20 1008.5 - 0.0 - - - - - - -
18/04:00pm 27.6 N 16 22 1008.6 - 0.0 - - - - - - -
18/03:30pm 28.1 N 14 19 1008.9 - 0.0 - - - - - - -
18/03:00pm 28.6 NNE 14 20 1009.3 - 0.0 - - - - - - -
18/02:30pm 28.7 NNE 13 19 1009.8 - 0.0 - - - - - - -
18/02:00pm 29.0 NNE 12 19 1010.4 - 0.0 - - - - - - -
18/01:30pm 30.0 NNE 10 15 1010.7 - 0.0 - - - - - - -
18/01:00pm 29.7 N 11 17 1011.1 - 0.0 - - - - - - -
18/12:30pm 28.5 N 13 19 1011.6 - 0.0 - - - - - - -
18/12:00pm 27.8 N 13 17 1012.1 - 0.0 - - - - - - -
18/11:30am 27.8 N 14 17 1012.6 - 0.0 - - - - - - -
18/11:00am 28.6 NNW 9 13 1013.0 - 0.0 - - - - - - -
18/10:30am 27.8 NW 11 15 1013.4 - 0.0 - - - - - - -
18/10:00am 26.4 NW 17 23 1012.5 - 0.0 - - - - - - -
18/09:30am 26.5 NW 14 17 1013.7 - 0.0 - - - - - - -
18/09:00am 26.3 NW 9 12 1014.1 - 0.0 - - - - - - -
18/08:30am 26.1 NW 9 13 1014.2 - 0.0 - - - - - - -
18/08:00am 25.8 WNW 11 15 1014.3 - 0.0 - - - - - - -
18/07:30am 25.5 WNW 11 16 1014.3 - 0.0 - - - - - - -
18/07:00am 24.9 WNW 11 15 1014.3 - 0.0 - - - - - - -
18/06:30am 24.4 WNW 10 16 1014.0 - 0.0 - - - - - - -
18/06:00am 24.0 WNW 10 14 1013.5 - 0.0 - - - - - - -
18/05:30am 23.7 WNW 11 15 1013.3 - 0.0 - - - - - - -
18/05:00am 23.9 NW 10 15 1013.2 - 0.0 - - - - - - -
18/04:30am 24.1 NW 10 15 1013.2 - 0.0 - - - - - - -
18/04:00am 24.1 NW 10 14 1012.9 - 0.0 - - - - - - -
18/03:30am 24.2 NW 10 15 1012.9 - 0.0 - - - - - - -
18/03:00am 24.6 NW 12 17 1012.9 - 0.0 - - - - - - -
18/02:30am 24.6 NNW 13 18 1013.1 - 0.0 - - - - - - -
18/02:00am 24.7 NNW 13 17 1013.3 - 0.0 - - - - - - -
18/01:30am 24.8 NNW 13 17 1013.5 - 0.0 - - - - - - -
18/01:00am 24.8 NNW 13 18 1013.7 - 0.0 - - - - - - -
18/12:30am 24.9 N 14 18 1014.1 - 0.0 - - - - - - -
18/12:00am 24.9 N 13 17 1014.7 - 0.0 - - - - - - -
 
Date/Time
EST
Temp
°C
Wind Pressure Rain since
9am
mm
Weather Cloud Vis
km
Sea
Height
m
Swell
Dir  Spd
kts
Gust
kts
hPa Trend Height
m
Period
s
Dir
17/11:30pm 24.9 N 12 16 1015.1 - 0.0 - - - - - - -
17/11:00pm 24.9 N 12 16 1015.2 - 0.0 - - - - - - -
17/10:30pm 24.9 N 12 16 1015.5 - 0.0 - - - - - - -
17/10:00pm 25.1 N 14 18 1015.5 - 0.0 - - - - - - -
17/09:30pm 25.1 NNE 14 18 1015.5 - 0.0 - - - - - - -
17/09:00pm 25.2 NNE 14 17 1015.5 - 0.0 - - - - - - -
17/08:30pm 25.3 NNE 13 16 1015.5 - 0.0 - - - - - - -
17/08:00pm 25.3 NNE 13 16 1015.7 - 0.0 - - - - - - -

Other Formats:

Comma delimited format used in spreadsheet applications
http://www.bom.gov.au/fwo/IDQ60701/IDQ60701.94594.axf

JavaScript Object Notation format (JSON) in row-major order
http://www.bom.gov.au/fwo/IDQ60701/IDQ60701.94594.json